sensor_id;sensor_type;location;lat;lon;timestamp;P1;durP1;ratioP1;P2;durP2;ratioP2
51602;SDS011;37954;51.980;5.850;2024-03-23T00:52:19;22.77;;;8.33;;
51602;SDS011;37954;51.980;5.850;2024-03-23T00:56:30;22.50;;;7.65;;
51602;SDS011;37954;51.980;5.850;2024-03-23T01:00:40;18.50;;;7.75;;
51602;SDS011;37954;51.980;5.850;2024-03-23T01:04:51;21.75;;;8.60;;
51602;SDS011;37954;51.980;5.850;2024-03-23T01:09:02;23.55;;;8.13;;
51602;SDS011;37954;51.980;5.850;2024-03-23T01:13:13;15.13;;;7.50;;
51602;SDS011;37954;51.980;5.850;2024-03-23T01:17:23;15.10;;;7.77;;
51602;SDS011;37954;51.980;5.850;2024-03-23T01:21:34;20.05;;;8.13;;
51602;SDS011;37954;51.980;5.850;2024-03-23T01:25:51;23.48;;;9.32;;
51602;SDS011;37954;51.980;5.850;2024-03-23T01:30:03;19.38;;;8.43;;
51602;SDS011;37954;51.980;5.850;2024-03-23T01:34:14;19.50;;;8.38;;
51602;SDS011;37954;51.980;5.850;2024-03-23T01:38:25;26.92;;;9.27;;
51602;SDS011;37954;51.980;5.850;2024-03-23T01:42:35;19.00;;;8.50;;
51602;SDS011;37954;51.980;5.850;2024-03-23T01:46:46;20.08;;;8.88;;
51602;SDS011;37954;51.980;5.850;2024-03-23T01:50:57;18.30;;;8.63;;
51602;SDS011;37954;51.980;5.850;2024-03-23T01:55:09;20.77;;;8.75;;
51602;SDS011;37954;51.980;5.850;2024-03-23T01:59:19;22.03;;;9.40;;
51602;SDS011;37954;51.980;5.850;2024-03-23T02:03:30;18.65;;;8.13;;
51602;SDS011;37954;51.980;5.850;2024-03-23T02:07:41;23.17;;;9.25;;
51602;SDS011;37954;51.980;5.850;2024-03-23T02:11:55;16.40;;;8.88;;
51602;SDS011;37954;51.980;5.850;2024-03-23T02:16:06;20.08;;;9.20;;
51602;SDS011;37954;51.980;5.850;2024-03-23T02:20:17;22.92;;;8.73;;
51602;SDS011;37954;51.980;5.850;2024-03-23T02:24:29;17.33;;;9.20;;
51602;SDS011;37954;51.980;5.850;2024-03-23T02:28:40;17.83;;;8.63;;
51602;SDS011;37954;51.980;5.850;2024-03-23T02:32:50;18.38;;;8.55;;
51602;SDS011;37954;51.980;5.850;2024-03-23T02:37:01;23.13;;;10.23;;
51602;SDS011;37954;51.980;5.850;2024-03-23T02:41:12;21.50;;;10.25;;
51602;SDS011;37954;51.980;5.850;2024-03-23T02:45:24;19.67;;;9.80;;
51602;SDS011;37954;51.980;5.850;2024-03-23T02:49:34;20.17;;;9.57;;
51602;SDS011;37954;51.980;5.850;2024-03-23T02:53:45;17.50;;;9.55;;
51602;SDS011;37954;51.980;5.850;2024-03-23T02:57:56;24.43;;;11.00;;
51602;SDS011;37954;51.980;5.850;2024-03-23T03:02:07;20.70;;;10.23;;
51602;SDS011;37954;51.980;5.850;2024-03-23T03:06:25;24.53;;;10.77;;
51602;SDS011;37954;51.980;5.850;2024-03-23T03:10:36;23.53;;;10.33;;
51602;SDS011;37954;51.980;5.850;2024-03-23T03:14:47;18.70;;;9.73;;
51602;SDS011;37954;51.980;5.850;2024-03-23T03:18:58;20.83;;;10.50;;
51602;SDS011;37954;51.980;5.850;2024-03-23T03:23:09;19.40;;;10.53;;
51602;SDS011;37954;51.980;5.850;2024-03-23T03:27:20;25.07;;;11.03;;
51602;SDS011;37954;51.980;5.850;2024-03-23T03:31:31;29.40;;;13.80;;
51602;SDS011;37954;51.980;5.850;2024-03-23T03:35:42;25.47;;;14.13;;
51602;SDS011;37954;51.980;5.850;2024-03-23T03:39:53;21.13;;;10.93;;
51602;SDS011;37954;51.980;5.850;2024-03-23T03:44:04;21.17;;;12.43;;
51602;SDS011;37954;51.980;5.850;2024-03-23T03:48:15;23.97;;;11.30;;
51602;SDS011;37954;51.980;5.850;2024-03-23T03:52:25;21.83;;;11.00;;
51602;SDS011;37954;51.980;5.850;2024-03-23T03:56:36;28.03;;;11.50;;
51602;SDS011;37954;51.980;5.850;2024-03-23T04:00:47;24.20;;;12.20;;
51602;SDS011;37954;51.980;5.850;2024-03-23T04:04:57;22.23;;;11.23;;
51602;SDS011;37954;51.980;5.850;2024-03-23T04:09:08;19.00;;;9.00;;
51602;SDS011;37954;51.980;5.850;2024-03-23T04:13:19;18.77;;;11.37;;
51602;SDS011;37954;51.980;5.850;2024-03-23T04:17:29;17.40;;;10.17;;
51602;SDS011;37954;51.980;5.850;2024-03-23T04:21:42;17.67;;;9.37;;
51602;SDS011;37954;51.980;5.850;2024-03-23T04:25:53;19.60;;;10.53;;
51602;SDS011;37954;51.980;5.850;2024-03-23T04:30:03;17.60;;;10.07;;
51602;SDS011;37954;51.980;5.850;2024-03-23T04:34:20;16.00;;;8.07;;
51602;SDS011;37954;51.980;5.850;2024-03-23T04:38:31;15.77;;;7.73;;
51602;SDS011;37954;51.980;5.850;2024-03-23T04:42:41;11.67;;;6.33;;
51602;SDS011;37954;51.980;5.850;2024-03-23T04:46:52;15.30;;;6.40;;
51602;SDS011;37954;51.980;5.850;2024-03-23T04:51:03;16.47;;;6.50;;
51602;SDS011;37954;51.980;5.850;2024-03-23T04:55:13;15.53;;;6.33;;
51602;SDS011;37954;51.980;5.850;2024-03-23T04:59:24;16.47;;;5.30;;
51602;SDS011;37954;51.980;5.850;2024-03-23T05:03:35;14.80;;;5.40;;
51602;SDS011;37954;51.980;5.850;2024-03-23T05:07:46;9.77;;;4.80;;
51602;SDS011;37954;51.980;5.850;2024-03-23T05:11:56;11.43;;;5.53;;
51602;SDS011;37954;51.980;5.850;2024-03-23T05:16:07;10.37;;;5.70;;
51602;SDS011;37954;51.980;5.850;2024-03-23T05:20:18;19.40;;;5.57;;
51602;SDS011;37954;51.980;5.850;2024-03-23T05:24:29;9.57;;;5.23;;
51602;SDS011;37954;51.980;5.850;2024-03-23T05:28:40;13.13;;;4.97;;
51602;SDS011;37954;51.980;5.850;2024-03-23T05:32:50;20.50;;;5.60;;
51602;SDS011;37954;51.980;5.850;2024-03-23T05:37:01;11.27;;;4.80;;
51602;SDS011;37954;51.980;5.850;2024-03-23T05:41:12;14.37;;;5.10;;
51602;SDS011;37954;51.980;5.850;2024-03-23T05:45:22;13.53;;;4.87;;
51602;SDS011;37954;51.980;5.850;2024-03-23T05:49:33;13.03;;;4.33;;
51602;SDS011;37954;51.980;5.850;2024-03-23T05:58:17;14.53;;;6.77;;
51602;SDS011;37954;51.980;5.850;2024-03-23T06:02:28;11.17;;;4.47;;
51602;SDS011;37954;51.980;5.850;2024-03-23T06:06:39;7.37;;;3.20;;
51602;SDS011;37954;51.980;5.850;2024-03-23T06:10:50;10.13;;;3.57;;
51602;SDS011;37954;51.980;5.850;2024-03-23T06:15:01;14.50;;;3.80;;
51602;SDS011;37954;51.980;5.850;2024-03-23T06:19:12;11.60;;;3.83;;
51602;SDS011;37954;51.980;5.850;2024-03-23T06:23:22;9.60;;;3.77;;
51602;SDS011;37954;51.980;5.850;2024-03-23T06:27:33;15.50;;;3.93;;
51602;SDS011;37954;51.980;5.850;2024-03-23T06:31:44;9.48;;;3.47;;
51602;SDS011;37954;51.980;5.850;2024-03-23T06:36:03;9.50;;;3.25;;
51602;SDS011;37954;51.980;5.850;2024-03-23T06:40:16;10.35;;;3.03;;
51602;SDS011;37954;51.980;5.850;2024-03-23T06:44:27;7.68;;;2.65;;
51602;SDS011;37954;51.980;5.850;2024-03-23T06:48:38;4.88;;;2.63;;
51602;SDS011;37954;51.980;5.850;2024-03-23T06:52:49;9.52;;;2.28;;
51602;SDS011;37954;51.980;5.850;2024-03-23T06:57:00;9.82;;;2.70;;
51602;SDS011;37954;51.980;5.850;2024-03-23T07:01:10;4.13;;;2.35;;
51602;SDS011;37954;51.980;5.850;2024-03-23T07:05:21;5.40;;;2.70;;
51602;SDS011;37954;51.980;5.850;2024-03-23T07:09:32;8.40;;;2.53;;
51602;SDS011;37954;51.980;5.850;2024-03-23T07:13:43;7.40;;;2.50;;
51602;SDS011;37954;51.980;5.850;2024-03-23T07:17:53;6.57;;;2.13;;
51602;SDS011;37954;51.980;5.850;2024-03-23T07:22:04;5.18;;;2.20;;
51602;SDS011;37954;51.980;5.850;2024-03-23T07:26:15;11.90;;;2.83;;
51602;SDS011;37954;51.980;5.850;2024-03-23T07:30:26;7.65;;;3.45;;
51602;SDS011;37954;51.980;5.850;2024-03-23T07:34:37;13.38;;;3.33;;
51602;SDS011;37954;51.980;5.850;2024-03-23T07:38:47;6.90;;;2.88;;
51602;SDS011;37954;51.980;5.850;2024-03-23T07:42:58;6.55;;;2.65;;
51602;SDS011;37954;51.980;5.850;2024-03-23T07:47:09;10.68;;;2.80;;
51602;SDS011;37954;51.980;5.850;2024-03-23T07:51:23;6.70;;;3.15;;
51602;SDS011;37954;51.980;5.850;2024-03-23T07:55:33;8.88;;;2.92;;
51602;SDS011;37954;51.980;5.850;2024-03-23T07:59:44;6.05;;;2.72;;
51602;SDS011;37954;51.980;5.850;2024-03-23T08:03:55;8.35;;;2.92;;
51602;SDS011;37954;51.980;5.850;2024-03-23T08:08:06;5.38;;;2.60;;
51602;SDS011;37954;51.980;5.850;2024-03-23T08:12:16;7.95;;;2.90;;
51602;SDS011;37954;51.980;5.850;2024-03-23T08:16:27;9.77;;;3.30;;
51602;SDS011;37954;51.980;5.850;2024-03-23T08:20:38;5.45;;;2.60;;
51602;SDS011;37954;51.980;5.850;2024-03-23T08:24:49;8.23;;;3.03;;
51602;SDS011;37954;51.980;5.850;2024-03-23T08:29:00;8.65;;;2.53;;
51602;SDS011;37954;51.980;5.850;2024-03-23T08:33:10;6.63;;;2.63;;
51602;SDS011;37954;51.980;5.850;2024-03-23T08:37:21;8.82;;;2.58;;
51602;SDS011;37954;51.980;5.850;2024-03-23T08:41:32;7.00;;;2.80;;
51602;SDS011;37954;51.980;5.850;2024-03-23T08:45:43;9.48;;;2.63;;
51602;SDS011;37954;51.980;5.850;2024-03-23T08:49:53;7.85;;;2.28;;
51602;SDS011;37954;51.980;5.850;2024-03-23T08:54:05;5.13;;;1.77;;
51602;SDS011;37954;51.980;5.850;2024-03-23T08:58:15;5.28;;;1.98;;
51602;SDS011;37954;51.980;5.850;2024-03-23T09:02:27;6.25;;;2.08;;
51602;SDS011;37954;51.980;5.850;2024-03-23T09:06:38;6.88;;;1.95;;
51602;SDS011;37954;51.980;5.850;2024-03-23T09:10:49;3.28;;;1.80;;
51602;SDS011;37954;51.980;5.850;2024-03-23T09:15:00;7.03;;;2.50;;
51602;SDS011;37954;51.980;5.850;2024-03-23T09:19:10;5.30;;;2.10;;
51602;SDS011;37954;51.980;5.850;2024-03-23T09:23:21;8.70;;;2.25;;
51602;SDS011;37954;51.980;5.850;2024-03-23T09:27:32;6.47;;;2.65;;
51602;SDS011;37954;51.980;5.850;2024-03-23T09:31:43;5.82;;;2.10;;
51602;SDS011;37954;51.980;5.850;2024-03-23T09:35:53;9.68;;;2.55;;
51602;SDS011;37954;51.980;5.850;2024-03-23T09:40:08;3.22;;;1.63;;
51602;SDS011;37954;51.980;5.850;2024-03-23T09:44:21;3.78;;;2.00;;
51602;SDS011;37954;51.980;5.850;2024-03-23T09:48:32;4.68;;;1.73;;
51602;SDS011;37954;51.980;5.850;2024-03-23T09:52:45;6.85;;;2.08;;
51602;SDS011;37954;51.980;5.850;2024-03-23T09:56:56;7.00;;;2.20;;
51602;SDS011;37954;51.980;5.850;2024-03-23T10:01:09;3.58;;;2.17;;
51602;SDS011;37954;51.980;5.850;2024-03-23T10:05:20;3.55;;;2.08;;
51602;SDS011;37954;51.980;5.850;2024-03-23T10:09:33;5.60;;;2.13;;
51602;SDS011;37954;51.980;5.850;2024-03-23T10:13:44;4.65;;;1.90;;
51602;SDS011;37954;51.980;5.850;2024-03-23T10:17:56;3.35;;;1.60;;
51602;SDS011;37954;51.980;5.850;2024-03-23T10:22:08;4.97;;;1.52;;
51602;SDS011;37954;51.980;5.850;2024-03-23T10:26:29;7.07;;;1.80;;
51602;SDS011;37954;51.980;5.850;2024-03-23T10:30:40;3.78;;;1.73;;
51602;SDS011;37954;51.980;5.850;2024-03-23T10:34:51;3.53;;;2.05;;
51602;SDS011;37954;51.980;5.850;2024-03-23T10:39:02;3.33;;;1.77;;
51602;SDS011;37954;51.980;5.850;2024-03-23T10:43:13;5.28;;;2.30;;
51602;SDS011;37954;51.980;5.850;2024-03-23T10:47:24;6.90;;;1.92;;
51602;SDS011;37954;51.980;5.850;2024-03-23T10:51:36;5.88;;;1.92;;
51602;SDS011;37954;51.980;5.850;2024-03-23T10:55:48;7.63;;;2.50;;
51602;SDS011;37954;51.980;5.850;2024-03-23T10:59:59;3.88;;;1.67;;
51602;SDS011;37954;51.980;5.850;2024-03-23T11:04:17;2.67;;;1.85;;
51602;SDS011;37954;51.980;5.850;2024-03-23T11:08:40;4.50;;;1.80;;
51602;SDS011;37954;51.980;5.850;2024-03-23T11:12:54;3.67;;;1.88;;
51602;SDS011;37954;51.980;5.850;2024-03-23T11:17:10;6.28;;;1.77;;
51602;SDS011;37954;51.980;5.850;2024-03-23T11:26:06;4.53;;;2.05;;
51602;SDS011;37954;51.980;5.850;2024-03-23T11:30:24;3.90;;;1.88;;
51602;SDS011;37954;51.980;5.850;2024-03-23T11:34:36;3.63;;;2.08;;
51602;SDS011;37954;51.980;5.850;2024-03-23T11:38:47;2.75;;;1.92;;
51602;SDS011;37954;51.980;5.850;2024-03-23T11:42:58;4.93;;;1.67;;
51602;SDS011;37954;51.980;5.850;2024-03-23T11:47:10;5.57;;;1.95;;
51602;SDS011;37954;51.980;5.850;2024-03-23T11:51:21;4.07;;;2.15;;
51602;SDS011;37954;51.980;5.850;2024-03-23T11:55:38;9.38;;;2.00;;
51602;SDS011;37954;51.980;5.850;2024-03-23T11:59:52;4.68;;;1.83;;
51602;SDS011;37954;51.980;5.850;2024-03-23T12:04:02;7.88;;;1.58;;
51602;SDS011;37954;51.980;5.850;2024-03-23T12:12:27;3.30;;;1.80;;
51602;SDS011;37954;51.980;5.850;2024-03-23T12:16:38;4.57;;;2.13;;
51602;SDS011;37954;51.980;5.850;2024-03-23T12:20:49;3.35;;;1.50;;
51602;SDS011;37954;51.980;5.850;2024-03-23T12:25:00;4.85;;;1.52;;
51602;SDS011;37954;51.980;5.850;2024-03-23T12:29:10;2.45;;;1.88;;
51602;SDS011;37954;51.980;5.850;2024-03-23T12:33:21;4.20;;;1.90;;
51602;SDS011;37954;51.980;5.850;2024-03-23T12:37:32;3.53;;;1.85;;
51602;SDS011;37954;51.980;5.850;2024-03-23T12:41:43;8.15;;;2.00;;
51602;SDS011;37954;51.980;5.850;2024-03-23T12:45:53;3.30;;;1.95;;
51602;SDS011;37954;51.980;5.850;2024-03-23T12:50:04;5.88;;;2.08;;
51602;SDS011;37954;51.980;5.850;2024-03-23T12:54:16;5.40;;;1.80;;
51602;SDS011;37954;51.980;5.850;2024-03-23T12:58:27;6.35;;;1.60;;
51602;SDS011;37954;51.980;5.850;2024-03-23T13:02:38;4.78;;;2.15;;
51602;SDS011;37954;51.980;5.850;2024-03-23T13:06:49;12.25;;;2.10;;
51602;SDS011;37954;51.980;5.850;2024-03-23T13:11:00;6.15;;;2.17;;
51602;SDS011;37954;51.980;5.850;2024-03-23T13:15:10;5.28;;;1.92;;
51602;SDS011;37954;51.980;5.850;2024-03-23T13:19:21;4.32;;;2.08;;
51602;SDS011;37954;51.980;5.850;2024-03-23T13:23:37;4.32;;;1.85;;
51602;SDS011;37954;51.980;5.850;2024-03-23T13:27:50;7.90;;;2.15;;
51602;SDS011;37954;51.980;5.850;2024-03-23T13:32:01;6.45;;;2.17;;
51602;SDS011;37954;51.980;5.850;2024-03-23T13:36:11;5.90;;;1.80;;
51602;SDS011;37954;51.980;5.850;2024-03-23T13:40:22;5.95;;;1.67;;
51602;SDS011;37954;51.980;5.850;2024-03-23T13:44:33;5.30;;;2.03;;
51602;SDS011;37954;51.980;5.850;2024-03-23T13:48:44;3.60;;;1.83;;
51602;SDS011;37954;51.980;5.850;2024-03-23T13:52:54;4.50;;;1.83;;
51602;SDS011;37954;51.980;5.850;2024-03-23T13:57:05;7.45;;;2.30;;
51602;SDS011;37954;51.980;5.850;2024-03-23T14:01:16;3.67;;;1.67;;
51602;SDS011;37954;51.980;5.850;2024-03-23T14:05:27;5.13;;;1.73;;
51602;SDS011;37954;51.980;5.850;2024-03-23T14:09:38;5.63;;;2.00;;
51602;SDS011;37954;51.980;5.850;2024-03-23T14:13:48;2.15;;;1.40;;
51602;SDS011;37954;51.980;5.850;2024-03-23T14:17:59;6.45;;;1.90;;
51602;SDS011;37954;51.980;5.850;2024-03-23T14:22:10;3.67;;;1.35;;
51602;SDS011;37954;51.980;5.850;2024-03-23T14:26:21;5.95;;;1.65;;
51602;SDS011;37954;51.980;5.850;2024-03-23T14:35:35;3.83;;;1.52;;
51602;SDS011;37954;51.980;5.850;2024-03-23T14:39:46;3.00;;;1.50;;
51602;SDS011;37954;51.980;5.850;2024-03-23T14:43:57;2.17;;;1.30;;
51602;SDS011;37954;51.980;5.850;2024-03-23T14:48:07;2.80;;;1.60;;
51602;SDS011;37954;51.980;5.850;2024-03-23T14:52:19;3.90;;;1.38;;
51602;SDS011;37954;51.980;5.850;2024-03-23T14:56:30;7.53;;;1.88;;
51602;SDS011;37954;51.980;5.850;2024-03-23T15:00:40;2.95;;;1.45;;
51602;SDS011;37954;51.980;5.850;2024-03-23T15:04:51;7.82;;;1.67;;
51602;SDS011;37954;51.980;5.850;2024-03-23T15:09:02;5.60;;;2.00;;
51602;SDS011;37954;51.980;5.850;2024-03-23T15:13:17;4.78;;;1.75;;
51602;SDS011;37954;51.980;5.850;2024-03-23T15:17:28;2.80;;;1.58;;
51602;SDS011;37954;51.980;5.850;2024-03-23T15:21:39;8.68;;;2.10;;
51602;SDS011;37954;51.980;5.850;2024-03-23T15:25:54;2.80;;;1.55;;
51602;SDS011;37954;51.980;5.850;2024-03-23T15:30:08;4.70;;;1.90;;
51602;SDS011;37954;51.980;5.850;2024-03-23T15:34:19;6.70;;;1.38;;
51602;SDS011;37954;51.980;5.850;2024-03-23T15:38:32;8.05;;;2.53;;
51602;SDS011;37954;51.980;5.850;2024-03-23T15:42:43;8.48;;;1.95;;
51602;SDS011;37954;51.980;5.850;2024-03-23T15:46:54;4.57;;;1.73;;
51602;SDS011;37954;51.980;5.850;2024-03-23T15:51:04;2.40;;;1.42;;
51602;SDS011;37954;51.980;5.850;2024-03-23T15:55:15;2.47;;;1.40;;
51602;SDS011;37954;51.980;5.850;2024-03-23T15:59:26;1.58;;;1.20;;
51602;SDS011;37954;51.980;5.850;2024-03-23T16:03:37;10.00;;;4.80;;
51602;SDS011;37954;51.980;5.850;2024-03-23T16:07:48;7.88;;;2.97;;
51602;SDS011;37954;51.980;5.850;2024-03-23T16:11:58;4.25;;;1.65;;
51602;SDS011;37954;51.980;5.850;2024-03-23T16:16:09;2.67;;;1.65;;
51602;SDS011;37954;51.980;5.850;2024-03-23T16:20:20;4.00;;;1.30;;
51602;SDS011;37954;51.980;5.850;2024-03-23T16:24:32;4.47;;;1.73;;
51602;SDS011;37954;51.980;5.850;2024-03-23T16:28:42;5.80;;;1.70;;
51602;SDS011;37954;51.980;5.850;2024-03-23T16:32:53;4.85;;;1.48;;
51602;SDS011;37954;51.980;5.850;2024-03-23T16:37:04;6.10;;;1.60;;
51602;SDS011;37954;51.980;5.850;2024-03-23T16:41:15;6.13;;;1.20;;
51602;SDS011;37954;51.980;5.850;2024-03-23T16:45:28;3.42;;;1.15;;
51602;SDS011;37954;51.980;5.850;2024-03-23T16:49:39;2.63;;;1.10;;
51602;SDS011;37954;51.980;5.850;2024-03-23T16:53:50;1.85;;;1.17;;
51602;SDS011;37954;51.980;5.850;2024-03-23T16:58:01;3.50;;;1.88;;
51602;SDS011;37954;51.980;5.850;2024-03-23T17:02:11;2.55;;;1.20;;
51602;SDS011;37954;51.980;5.850;2024-03-23T17:06:22;3.10;;;1.30;;
51602;SDS011;37954;51.980;5.850;2024-03-23T17:10:35;2.92;;;1.23;;
51602;SDS011;37954;51.980;5.850;2024-03-23T17:14:47;1.92;;;1.10;;
51602;SDS011;37954;51.980;5.850;2024-03-23T17:18:58;4.55;;;1.40;;
51602;SDS011;37954;51.980;5.850;2024-03-23T17:23:10;2.28;;;1.40;;
51602;SDS011;37954;51.980;5.850;2024-03-23T17:27:20;2.28;;;1.23;;
51602;SDS011;37954;51.980;5.850;2024-03-23T17:31:31;2.60;;;1.35;;
51602;SDS011;37954;51.980;5.850;2024-03-23T17:35:42;34.35;;;15.00;;
51602;SDS011;37954;51.980;5.850;2024-03-23T17:39:56;5.25;;;1.80;;
51602;SDS011;37954;51.980;5.850;2024-03-23T17:44:07;13.45;;;7.68;;
51602;SDS011;37954;51.980;5.850;2024-03-23T17:48:17;7.82;;;4.63;;
51602;SDS011;37954;51.980;5.850;2024-03-23T17:52:28;3.47;;;2.40;;
51602;SDS011;37954;51.980;5.850;2024-03-23T17:56:39;9.13;;;2.70;;
51602;SDS011;37954;51.980;5.850;2024-03-23T18:00:50;2.47;;;1.33;;
51602;SDS011;37954;51.980;5.850;2024-03-23T18:05:00;4.13;;;2.20;;
51602;SDS011;37954;51.980;5.850;2024-03-23T18:09:11;5.20;;;2.50;;
51602;SDS011;37954;51.980;5.850;2024-03-23T18:13:22;12.27;;;8.30;;
51602;SDS011;37954;51.980;5.850;2024-03-23T18:17:33;4.63;;;3.63;;
51602;SDS011;37954;51.980;5.850;2024-03-23T18:21:44;2.10;;;1.90;;
51602;SDS011;37954;51.980;5.850;2024-03-23T18:30:15;80.73;;;35.77;;
51602;SDS011;37954;51.980;5.850;2024-03-23T18:34:26;8.87;;;4.37;;
51602;SDS011;37954;51.980;5.850;2024-03-23T18:38:38;2.27;;;2.03;;
51602;SDS011;37954;51.980;5.850;2024-03-23T18:42:48;2.27;;;1.50;;
51602;SDS011;37954;51.980;5.850;2024-03-23T18:47:00;26.47;;;12.90;;
51602;SDS011;37954;51.980;5.850;2024-03-23T18:51:10;7.37;;;3.30;;
51602;SDS011;37954;51.980;5.850;2024-03-23T18:55:21;3.27;;;2.40;;
51602;SDS011;37954;51.980;5.850;2024-03-23T18:59:32;7.17;;;1.50;;
51602;SDS011;37954;51.980;5.850;2024-03-23T19:03:42;5.27;;;2.27;;
51602;SDS011;37954;51.980;5.850;2024-03-23T19:07:53;5.23;;;2.20;;
51602;SDS011;37954;51.980;5.850;2024-03-23T19:12:04;13.63;;;5.33;;
51602;SDS011;37954;51.980;5.850;2024-03-23T19:16:15;7.83;;;3.60;;
51602;SDS011;37954;51.980;5.850;2024-03-23T19:20:28;4.60;;;1.77;;
51602;SDS011;37954;51.980;5.850;2024-03-23T19:24:40;4.40;;;1.97;;
51602;SDS011;37954;51.980;5.850;2024-03-23T19:28:55;6.23;;;2.33;;
51602;SDS011;37954;51.980;5.850;2024-03-23T19:33:20;5.40;;;2.33;;
51602;SDS011;37954;51.980;5.850;2024-03-23T19:37:34;3.00;;;1.70;;
51602;SDS011;37954;51.980;5.850;2024-03-23T19:41:44;4.23;;;2.07;;
51602;SDS011;37954;51.980;5.850;2024-03-23T19:45:55;3.50;;;2.00;;
51602;SDS011;37954;51.980;5.850;2024-03-23T19:50:07;5.33;;;2.17;;
51602;SDS011;37954;51.980;5.850;2024-03-23T19:54:19;3.50;;;2.27;;
51602;SDS011;37954;51.980;5.850;2024-03-23T19:58:29;4.77;;;2.43;;
51602;SDS011;37954;51.980;5.850;2024-03-23T20:02:43;4.50;;;2.20;;
51602;SDS011;37954;51.980;5.850;2024-03-23T20:06:55;7.70;;;4.20;;
51602;SDS011;37954;51.980;5.850;2024-03-23T20:11:07;6.97;;;2.83;;
51602;SDS011;37954;51.980;5.850;2024-03-23T20:15:18;5.60;;;3.00;;
51602;SDS011;37954;51.980;5.850;2024-03-23T20:19:29;6.23;;;2.70;;
51602;SDS011;37954;51.980;5.850;2024-03-23T20:23:40;8.23;;;3.20;;
51602;SDS011;37954;51.980;5.850;2024-03-23T20:27:51;6.70;;;3.13;;
51602;SDS011;37954;51.980;5.850;2024-03-23T20:32:02;5.87;;;3.47;;
51602;SDS011;37954;51.980;5.850;2024-03-23T20:36:13;5.93;;;2.73;;
51602;SDS011;37954;51.980;5.850;2024-03-23T20:40:24;5.77;;;2.83;;
51602;SDS011;37954;51.980;5.850;2024-03-23T20:44:35;6.67;;;2.93;;
51602;SDS011;37954;51.980;5.850;2024-03-23T20:48:45;6.17;;;3.90;;
51602;SDS011;37954;51.980;5.850;2024-03-23T20:53:02;6.57;;;3.63;;
51602;SDS011;37954;51.980;5.850;2024-03-23T20:57:13;5.43;;;2.37;;
51602;SDS011;37954;51.980;5.850;2024-03-23T21:01:24;9.57;;;3.97;;
51602;SDS011;37954;51.980;5.850;2024-03-23T21:05:34;6.53;;;3.70;;
51602;SDS011;37954;51.980;5.850;2024-03-23T21:09:45;5.43;;;2.50;;
51602;SDS011;37954;51.980;5.850;2024-03-23T21:13:56;4.07;;;2.60;;
51602;SDS011;37954;51.980;5.850;2024-03-23T21:18:07;3.30;;;2.30;;
51602;SDS011;37954;51.980;5.850;2024-03-23T21:22:18;6.77;;;2.10;;
51602;SDS011;37954;51.980;5.850;2024-03-23T21:26:29;5.20;;;2.77;;
51602;SDS011;37954;51.980;5.850;2024-03-23T21:30:42;6.53;;;2.80;;
51602;SDS011;37954;51.980;5.850;2024-03-23T21:34:52;6.43;;;1.90;;
51602;SDS011;37954;51.980;5.850;2024-03-23T21:39:04;5.13;;;3.00;;
51602;SDS011;37954;51.980;5.850;2024-03-23T21:43:18;7.27;;;2.27;;
51602;SDS011;37954;51.980;5.850;2024-03-23T21:47:28;5.13;;;2.10;;
51602;SDS011;37954;51.980;5.850;2024-03-23T21:51:39;5.27;;;2.50;;
51602;SDS011;37954;51.980;5.850;2024-03-23T21:55:50;4.53;;;2.37;;
51602;SDS011;37954;51.980;5.850;2024-03-23T22:00:02;5.93;;;2.90;;
51602;SDS011;37954;51.980;5.850;2024-03-23T22:04:25;5.33;;;2.50;;
51602;SDS011;37954;51.980;5.850;2024-03-23T22:08:36;6.07;;;3.00;;
51602;SDS011;37954;51.980;5.850;2024-03-23T22:12:48;8.20;;;3.20;;
51602;SDS011;37954;51.980;5.850;2024-03-23T22:16:58;5.73;;;3.20;;
51602;SDS011;37954;51.980;5.850;2024-03-23T22:21:10;7.17;;;3.23;;
51602;SDS011;37954;51.980;5.850;2024-03-23T22:25:22;5.00;;;2.80;;
51602;SDS011;37954;51.980;5.850;2024-03-23T22:29:33;5.57;;;3.33;;
51602;SDS011;37954;51.980;5.850;2024-03-23T22:33:43;6.53;;;3.80;;
51602;SDS011;37954;51.980;5.850;2024-03-23T22:37:55;8.17;;;4.17;;
51602;SDS011;37954;51.980;5.850;2024-03-23T22:42:05;5.57;;;3.37;;
51602;SDS011;37954;51.980;5.850;2024-03-23T22:46:16;6.50;;;3.60;;
51602;SDS011;37954;51.980;5.850;2024-03-23T22:50:27;7.47;;;3.83;;
51602;SDS011;37954;51.980;5.850;2024-03-23T22:54:37;6.03;;;3.80;;
51602;SDS011;37954;51.980;5.850;2024-03-23T22:58:48;5.50;;;3.47;;
51602;SDS011;37954;51.980;5.850;2024-03-23T23:03:02;8.00;;;3.47;;
51602;SDS011;37954;51.980;5.850;2024-03-23T23:07:13;6.37;;;3.63;;
51602;SDS011;37954;51.980;5.850;2024-03-23T23:11:24;9.27;;;4.07;;
51602;SDS011;37954;51.980;5.850;2024-03-23T23:15:35;10.07;;;4.10;;
51602;SDS011;37954;51.980;5.850;2024-03-23T23:19:45;11.07;;;3.97;;
51602;SDS011;37954;51.980;5.850;2024-03-23T23:23:56;5.63;;;3.50;;
51602;SDS011;37954;51.980;5.850;2024-03-23T23:28:07;4.97;;;3.30;;
51602;SDS011;37954;51.980;5.850;2024-03-23T23:32:17;5.80;;;3.53;;
51602;SDS011;37954;51.980;5.850;2024-03-23T23:36:28;5.40;;;3.10;;
51602;SDS011;37954;51.980;5.850;2024-03-23T23:40:39;6.57;;;2.93;;
51602;SDS011;37954;51.980;5.850;2024-03-23T23:44:50;6.73;;;2.77;;
51602;SDS011;37954;51.980;5.850;2024-03-23T23:49:01;6.17;;;2.73;;
51602;SDS011;37954;51.980;5.850;2024-03-23T23:53:12;3.03;;;2.47;;
51602;SDS011;37954;51.980;5.850;2024-03-23T23:57:23;6.23;;;3.10;;
